バマコ の空港の天気 - METARとTAF

バマコ・セヌー国際空港 ( GABS / BKO ) - マリ バマコ
飛行場実況気象(Metar)
観測時間05/25 23:00 GMT (05/25 23:00 UTC)
風向・風速南南西 3m/s
視程10km以上
天気現象
なし
気温31℃
湿度55%
気圧1014hPa
METARGABS 252300Z 21005KT 170V240 CAVOK 31/21 Q1014 NOSIG
過去の天気等 Google飛行場航空写真 Wunderground天気予報

過去48時間のMETAR

飛行場予報(TAF)
発表時間: 5/25 17:30 GMT (5/25 17:30 UTC)
予報対象時間: 25日18時 GMT ~ 27日0時 GMT
風向・風速南南西 3m/s
視程10km以上
少しの雲 雲底高度 910m
25日18時 GMT ~ 25日22時 GMT に 確率 30% で一時的に
風向・風速不定 8m/s 瞬間風速 18m/s
視程4000m
天気現象高い風塵 雷雨
全天の4割程度の雲 雲底高度 910m
少しの積乱雲 雲底高度 1220m
26日8時 GMT ~ 26日18時 GMT に一時的に
風向・風速東 8m/s 瞬間風速 18m/s
視程4000m
天気現象高い風塵 雷雨
全天の4割程度の雲 雲底高度 910m
少しの積乱雲 雲底高度 1220m
TAF GABS 251730Z 2518/2624 20006KT 9999 FEW030
PROB30 TEMPO 2518/2522 VRB16G35KT 4000 BLDU TSRA SCT030 FEW040CB
TEMPO 2608/2618 10015G35KT 4000 BLDU TSRA SCT030 FEW040CB